createdAt,value
2023-02-06T00:00:41.890Z,1.18
2023-02-06T00:02:43.933Z,1.01
2023-02-06T00:04:45.615Z,1.04
2023-02-06T00:06:47.242Z,0.75
2023-02-06T00:08:48.843Z,0.37
2023-02-06T00:10:50.361Z,0.47
2023-02-06T00:12:51.915Z,0.45
2023-02-06T00:14:53.462Z,0.51
2023-02-06T00:16:54.952Z,0.31
2023-02-06T00:18:58.020Z,0.30
2023-02-06T00:20:59.643Z,0.33
2023-02-06T00:23:01.404Z,0.31
2023-02-06T00:25:03.706Z,0.29
2023-02-06T00:27:05.207Z,0.27
2023-02-06T00:29:06.774Z,0.18
2023-02-06T00:31:09.138Z,-0.01
2023-02-06T00:33:10.791Z,-0.11
2023-02-06T00:35:13.330Z,-0.21
2023-02-06T00:37:17.430Z,-0.22
2023-02-06T00:39:19.587Z,-0.13
2023-02-06T00:41:21.403Z,-0.05
2023-02-06T00:43:23.188Z,-0.14
2023-02-06T00:45:24.705Z,-0.14
2023-02-06T00:47:26.416Z,-0.22
2023-02-06T00:49:27.954Z,-0.30
2023-02-06T00:51:29.919Z,-0.33
2023-02-06T00:53:32.085Z,-0.35
2023-02-06T00:55:34.230Z,-0.55
2023-02-06T00:57:35.949Z,-0.52
2023-02-06T00:59:37.461Z,-0.52
2023-02-06T01:01:38.957Z,-0.54
2023-02-06T01:03:40.677Z,-0.78
2023-02-06T01:05:44.328Z,-0.88
2023-02-06T01:07:46.005Z,-1.01
2023-02-06T01:09:47.837Z,-1.21
2023-02-06T01:11:49.476Z,-1.46
2023-02-06T01:13:51.614Z,-1.58
2023-02-06T01:15:53.622Z,-1.56
2023-02-06T01:17:55.207Z,-1.41
2023-02-06T01:19:56.742Z,-1.38
2023-02-06T01:21:58.371Z,-1.27
2023-02-06T01:24:00.338Z,-1.34
2023-02-06T01:26:11.488Z,-1.15
2023-02-06T01:28:13.690Z,-1.07
2023-02-06T01:30:16.545Z,-1.14
2023-02-06T01:32:18.144Z,-1.11
2023-02-06T01:34:19.765Z,-1.20
2023-02-06T01:36:21.998Z,-1.19
2023-02-06T01:38:24.532Z,-0.98
2023-02-06T01:40:26.505Z,-0.84
2023-02-06T01:42:28.039Z,-0.76
2023-02-06T01:44:31.905Z,-0.57
2023-02-06T01:46:33.975Z,-0.48
2023-02-06T01:48:47.676Z,-0.41
2023-02-06T01:50:53.738Z,-0.19
2023-02-06T01:52:55.974Z,-0.19
2023-02-06T01:55:02.744Z,-0.06
2023-02-06T01:57:08.430Z,0.13
2023-02-06T01:59:10.024Z,0.19
2023-02-06T02:01:11.929Z,0.20
2023-02-06T02:03:14.455Z,0.28
2023-02-06T02:05:18.267Z,0.31
2023-02-06T02:07:24.647Z,0.54
2023-02-06T02:09:28.446Z,0.49
2023-02-06T02:11:35.956Z,0.58
2023-02-06T02:13:39.625Z,0.54
2023-02-06T02:16:16.364Z,0.60
2023-02-06T02:18:32.796Z,0.66
2023-02-06T02:21:07.284Z,0.65
2023-02-06T02:23:25.885Z,0.62
2023-02-06T02:26:18.779Z,0.47
2023-02-06T02:28:33.743Z,0.59
2023-02-06T02:31:19.592Z,0.77
2023-02-06T02:33:42.666Z,0.80
2023-02-06T02:36:03.004Z,0.87
2023-02-06T02:38:11.765Z,0.90
2023-02-06T02:40:40.930Z,1.01
2023-02-06T02:42:54.965Z,0.97
2023-02-06T02:45:19.008Z,0.97
2023-02-06T02:47:28.468Z,0.83
2023-02-06T02:49:35.264Z,0.67
2023-02-06T02:51:39.656Z,0.80
2023-02-06T02:53:41.604Z,0.75
2023-02-06T02:55:43.168Z,0.79
2023-02-06T02:57:46.772Z,0.80
2023-02-06T02:59:50.333Z,0.95
2023-02-06T03:02:06.524Z,0.91
2023-02-06T03:04:14.351Z,0.92
2023-02-06T03:06:28.104Z,0.94
2023-02-06T03:08:48.406Z,1.05
2023-02-06T03:11:06.727Z,1.02
2023-02-06T03:13:21.031Z,1.01
2023-02-06T03:15:45.584Z,0.94
2023-02-06T03:17:52.695Z,0.97
2023-02-06T03:19:58.709Z,0.99
2023-02-06T03:22:01.550Z,0.92
2023-02-06T03:24:09.866Z,0.92
2023-02-06T03:26:16.437Z,0.86
2023-02-06T03:28:25.025Z,0.81
2023-02-06T03:30:29.716Z,0.74
2023-02-06T03:32:34.518Z,0.53
2023-02-06T03:35:14.436Z,0.58
2023-02-06T03:37:16.222Z,0.59
2023-02-06T03:39:18.056Z,0.58
2023-02-06T03:41:26.207Z,0.70
2023-02-06T03:43:29.488Z,0.68
2023-02-06T03:45:42.624Z,0.48
2023-02-06T03:47:47.752Z,0.32
2023-02-06T03:49:51.340Z,0.31
2023-02-06T03:52:05.557Z,0.33
2023-02-06T03:54:10.744Z,0.41
2023-02-06T03:56:26.517Z,0.29
2023-02-06T03:58:28.165Z,0.46
2023-02-06T04:00:31.872Z,0.55
2023-02-06T04:02:34.629Z,0.65
2023-02-06T04:04:39.167Z,0.84
2023-02-06T04:06:41.539Z,0.92
2023-02-06T04:08:43.058Z,0.85
2023-02-06T04:10:44.742Z,0.82
2023-02-06T04:12:46.362Z,0.86
2023-02-06T04:14:48.091Z,0.86
2023-02-06T04:16:49.751Z,0.92
2023-02-06T04:18:51.266Z,0.99
2023-02-06T04:20:52.969Z,1.06
2023-02-06T04:22:54.447Z,1.00
2023-02-06T04:24:55.968Z,1.00
2023-02-06T04:26:58.951Z,0.99
2023-02-06T04:29:00.796Z,0.95
2023-02-06T04:31:02.977Z,0.83
2023-02-06T04:33:05.423Z,0.78
2023-02-06T04:35:07.277Z,0.74
2023-02-06T04:37:12.200Z,0.77
2023-02-06T04:39:13.762Z,0.73
2023-02-06T04:41:15.422Z,0.72
2023-02-06T04:43:16.912Z,0.76
2023-02-06T04:45:18.545Z,0.77
2023-02-06T04:47:20.153Z,0.81
2023-02-06T04:49:21.884Z,0.71
2023-02-06T04:51:23.359Z,0.55
2023-02-06T04:53:24.907Z,0.48
2023-02-06T04:55:26.476Z,0.54
2023-02-06T04:57:28.030Z,0.48
2023-02-06T04:59:29.752Z,0.38
2023-02-06T05:01:31.330Z,0.43
2023-02-06T05:03:33.128Z,0.46
2023-02-06T05:05:35.184Z,0.47
2023-02-06T05:07:37.323Z,0.54
2023-02-06T05:09:38.957Z,0.53
2023-02-06T05:11:40.567Z,0.52
2023-02-06T05:13:43.154Z,0.69
2023-02-06T05:15:44.841Z,0.75
2023-02-06T05:17:46.414Z,0.77
2023-02-06T05:19:48.384Z,0.73
2023-02-06T05:21:50.284Z,0.57
2023-02-06T05:23:51.835Z,0.65
2023-02-06T05:25:53.408Z,0.71
2023-02-06T05:27:55.410Z,0.60
2023-02-06T05:29:56.964Z,0.63
2023-02-06T05:31:58.800Z,0.90
2023-02-06T05:34:00.490Z,1.00
2023-02-06T05:36:04.936Z,1.01
2023-02-06T05:38:06.522Z,0.99
2023-02-06T05:40:09.148Z,1.05
2023-02-06T05:42:11.821Z,1.01
2023-02-06T05:44:13.865Z,1.04
2023-02-06T05:46:15.719Z,1.03
2023-02-06T05:48:17.490Z,1.02
2023-02-06T05:50:19.316Z,0.92
2023-02-06T05:52:20.932Z,1.02
2023-02-06T05:54:22.559Z,0.94
2023-02-06T05:56:25.213Z,1.06
2023-02-06T05:58:26.876Z,1.14
2023-02-06T06:00:28.453Z,1.21
2023-02-06T06:02:30.011Z,1.23
2023-02-06T06:04:31.651Z,1.26
2023-02-06T06:06:33.211Z,1.25
2023-02-06T06:08:35.211Z,1.19
2023-02-06T06:10:36.745Z,1.18
2023-02-06T06:12:38.512Z,1.22
2023-02-06T06:14:40.304Z,1.13
2023-02-06T06:16:42.618Z,1.12
2023-02-06T06:18:44.416Z,1.07
2023-02-06T06:20:46.797Z,1.03
2023-02-06T06:22:48.459Z,1.14
2023-02-06T06:24:50.504Z,1.18
2023-02-06T06:26:52.384Z,1.08
2023-02-06T06:28:54.173Z,0.95
2023-02-06T06:31:03.590Z,0.91
2023-02-06T06:33:05.491Z,0.94
2023-02-06T06:35:07.280Z,0.72
2023-02-06T06:37:08.793Z,0.82
2023-02-06T06:39:10.838Z,1.02
2023-02-06T06:41:12.753Z,1.09
2023-02-06T06:43:14.417Z,1.05
2023-02-06T06:45:16.107Z,0.91
2023-02-06T06:47:17.728Z,0.68
2023-02-06T06:49:19.197Z,0.59
2023-02-06T06:51:21.567Z,0.92
2023-02-06T06:53:23.689Z,0.83
2023-02-06T06:55:25.371Z,0.74
2023-02-06T06:57:29.838Z,0.77
2023-02-06T06:59:31.384Z,0.67
2023-02-06T07:01:33.260Z,0.67
2023-02-06T07:03:35.019Z,0.86
2023-02-06T07:05:36.928Z,0.96
2023-02-06T07:07:41.586Z,0.87
2023-02-06T07:09:43.119Z,0.92
2023-02-06T07:11:44.672Z,1.00
2023-02-06T07:13:46.770Z,0.99
2023-02-06T07:15:48.292Z,0.90
2023-02-06T07:17:49.827Z,0.93
2023-02-06T07:19:52.549Z,0.98
2023-02-06T07:21:54.085Z,1.11
2023-02-06T07:23:55.876Z,1.19
2023-02-06T07:26:02.162Z,1.23
2023-02-06T07:28:03.827Z,1.43
2023-02-06T07:30:06.650Z,1.40
2023-02-06T07:32:09.349Z,1.34
2023-02-06T07:34:12.510Z,1.31
2023-02-06T07:36:15.907Z,1.33
2023-02-06T07:38:17.738Z,1.36
2023-02-06T07:40:20.794Z,1.30
2023-02-06T07:42:22.362Z,1.45
2023-02-06T07:44:28.608Z,1.61
2023-02-06T07:46:33.344Z,1.51
2023-02-06T07:48:34.920Z,1.62
2023-02-06T07:50:36.821Z,1.75
2023-02-06T07:52:38.541Z,1.70
2023-02-06T07:54:40.041Z,1.81
2023-02-06T07:56:41.894Z,1.82
2023-02-06T07:58:44.356Z,1.85
2023-02-06T08:00:46.041Z,1.79
2023-02-06T08:02:47.870Z,1.92
2023-02-06T08:04:49.450Z,1.88
2023-02-06T08:06:51.022Z,2.02
2023-02-06T08:08:55.627Z,1.92
2023-02-06T08:10:57.145Z,2.04
2023-02-06T08:12:58.928Z,1.86
2023-02-06T08:15:00.474Z,1.50
2023-02-06T08:17:01.989Z,1.50
2023-02-06T08:19:03.762Z,1.67
2023-02-06T08:21:07.794Z,1.63
2023-02-06T08:23:09.764Z,1.46
2023-02-06T08:25:11.369Z,1.45
2023-02-06T08:27:12.847Z,1.31
2023-02-06T08:29:14.399Z,1.41
2023-02-06T08:31:26.443Z,1.51
2023-02-06T08:33:28.355Z,1.63
2023-02-06T08:35:29.894Z,1.73
2023-02-06T08:37:32.418Z,1.85
2023-02-06T08:39:33.938Z,1.92
2023-02-06T08:41:39.580Z,1.85
2023-02-06T08:43:41.113Z,1.82
2023-02-06T08:45:42.698Z,1.72
2023-02-06T08:47:44.218Z,1.75
2023-02-06T08:49:45.754Z,1.71
2023-02-06T08:51:49.504Z,1.88
2023-02-06T08:53:51.061Z,1.76
2023-02-06T08:55:58.419Z,1.76
2023-02-06T08:58:00.667Z,1.84
2023-02-06T09:00:02.961Z,2.01
2023-02-06T09:02:06.058Z,2.10
2023-02-06T09:04:10.557Z,2.06
2023-02-06T09:06:13.321Z,2.04
2023-02-06T09:08:14.913Z,1.99
2023-02-06T09:10:26.986Z,1.94
2023-02-06T09:12:28.893Z,1.76
2023-02-06T09:14:30.872Z,1.74
2023-02-06T09:16:33.511Z,1.85
2023-02-06T09:18:35.499Z,1.70
2023-02-06T09:20:37.069Z,1.77
2023-02-06T09:22:38.850Z,2.00
2023-02-06T09:24:40.917Z,1.90
2023-02-06T09:26:58.484Z,1.84
2023-02-06T09:29:05.346Z,2.02
2023-02-06T09:31:08.210Z,2.07
2023-02-06T09:33:09.837Z,1.96
2023-02-06T09:35:11.509Z,2.04
2023-02-06T09:37:13.228Z,2.30
2023-02-06T09:39:15.520Z,2.68
2023-02-06T09:41:28.677Z,4.35
2023-02-06T09:43:33.114Z,4.56
2023-02-06T09:45:35.235Z,4.62
2023-02-06T09:47:47.570Z,4.65
2023-02-06T09:49:54.493Z,4.96
2023-02-06T09:52:27.881Z,5.01
2023-02-06T09:54:43.151Z,5.18
2023-02-06T09:57:17.712Z,5.80
2023-02-06T09:59:29.777Z,5.69
2023-02-06T10:01:57.668Z,5.54
2023-02-06T10:04:38.831Z,4.81
2023-02-06T10:06:48.153Z,4.41
2023-02-06T10:09:03.600Z,4.32
2023-02-06T10:11:14.376Z,4.52
2023-02-06T10:13:33.236Z,4.65
2023-02-06T10:15:47.811Z,4.71
2023-02-06T10:17:56.305Z,4.45
2023-02-06T10:20:13.050Z,4.10
2023-02-06T10:22:26.831Z,4.13
2023-02-06T10:25:02.084Z,4.03
2023-02-06T10:27:11.076Z,3.72
2023-02-06T10:29:22.471Z,3.39
2023-02-06T10:31:24.056Z,3.18
2023-02-06T10:33:39.470Z,3.20
2023-02-06T10:35:47.195Z,3.25
2023-02-06T10:38:09.872Z,3.20
2023-02-06T10:40:29.017Z,3.20
2023-02-06T10:42:52.020Z,3.25
2023-02-06T10:45:20.288Z,3.71
2023-02-06T10:47:41.261Z,4.08
2023-02-06T10:49:50.079Z,3.62
2023-02-06T10:51:57.013Z,3.04
2023-02-06T10:54:02.808Z,3.17
2023-02-06T10:56:13.373Z,3.88
2023-02-06T10:58:30.031Z,4.86
2023-02-06T11:00:32.469Z,5.76
2023-02-06T11:02:49.010Z,7.07
2023-02-06T11:05:03.123Z,7.91
2023-02-06T11:07:24.989Z,7.99
2023-02-06T11:09:26.936Z,7.02
2023-02-06T11:11:32.086Z,6.34
2023-02-06T11:13:37.069Z,5.84
2023-02-06T11:16:02.411Z,5.99
2023-02-06T11:18:07.167Z,5.65
2023-02-06T11:20:25.888Z,5.46
2023-02-06T11:22:30.646Z,6.30
2023-02-06T11:24:35.349Z,6.54
2023-02-06T11:26:41.940Z,6.56
2023-02-06T11:28:56.230Z,7.05
2023-02-06T11:31:01.275Z,7.49
2023-02-06T11:33:07.136Z,8.56
2023-02-06T11:35:11.269Z,8.36
2023-02-06T11:37:32.790Z,9.55
2023-02-06T11:39:39.295Z,10.55
2023-02-06T11:41:40.969Z,10.47
2023-02-06T11:43:42.418Z,11.06
2023-02-06T11:45:47.065Z,11.19
2023-02-06T11:47:48.753Z,11.22
2023-02-06T11:49:50.410Z,10.96
2023-02-06T11:51:59.643Z,10.45
2023-02-06T11:54:03.804Z,9.94
2023-02-06T11:56:18.550Z,9.93
2023-02-06T11:58:22.513Z,10.30
2023-02-06T12:00:24.172Z,11.01
2023-02-06T12:02:31.946Z,10.85
2023-02-06T12:04:39.022Z,11.27
2023-02-06T12:06:41.339Z,11.16
2023-02-06T12:08:53.688Z,10.80
2023-02-06T12:11:00.907Z,10.92
2023-02-06T12:13:09.256Z,10.29
2023-02-06T12:15:36.247Z,9.65
2023-02-06T12:17:39.745Z,9.13
2023-02-06T12:19:52.179Z,8.20
2023-02-06T12:22:02.175Z,7.45
2023-02-06T12:24:30.862Z,7.27
2023-02-06T12:26:35.202Z,7.68
2023-02-06T12:29:04.778Z,7.84
2023-02-06T12:31:26.628Z,8.01
2023-02-06T12:33:53.386Z,8.44
2023-02-06T12:36:00.758Z,7.62
2023-02-06T12:38:12.464Z,7.57
2023-02-06T12:40:48.785Z,6.86
2023-02-06T12:43:07.065Z,6.87
2023-02-06T12:45:31.598Z,7.10
2023-02-06T12:47:57.631Z,7.31
2023-02-06T12:50:15.422Z,7.38
2023-02-06T12:52:21.266Z,7.19
2023-02-06T12:54:36.240Z,6.36
2023-02-06T12:56:54.104Z,5.72
2023-02-06T12:59:09.236Z,5.46
2023-02-06T13:01:30.125Z,5.61
2023-02-06T13:03:42.992Z,5.04
2023-02-06T13:05:49.107Z,4.40
2023-02-06T13:07:52.693Z,4.42
2023-02-06T13:10:05.759Z,4.47
2023-02-06T13:12:13.185Z,4.52
2023-02-06T13:14:28.696Z,5.96
2023-02-06T13:16:45.617Z,5.72
2023-02-06T13:18:52.477Z,5.38
2023-02-06T13:21:16.039Z,5.82
2023-02-06T13:23:17.794Z,5.88
2023-02-06T13:25:31.456Z,6.07
2023-02-06T13:27:40.004Z,6.83
2023-02-06T13:29:48.995Z,7.41
2023-02-06T13:32:11.331Z,6.92
2023-02-06T13:34:17.467Z,6.40
2023-02-06T13:36:26.988Z,6.15
2023-02-06T13:38:38.049Z,6.17
2023-02-06T13:40:39.702Z,5.89
2023-02-06T13:43:15.735Z,5.98
2023-02-06T13:45:45.475Z,5.95
2023-02-06T13:48:10.055Z,5.63
2023-02-06T13:50:50.001Z,5.54
2023-02-06T13:53:12.538Z,5.53
2023-02-06T13:55:34.140Z,5.57
2023-02-06T13:58:19.576Z,5.68
2023-02-06T14:00:30.069Z,6.26
2023-02-06T14:02:38.653Z,6.72
2023-02-06T14:04:41.136Z,6.62
2023-02-06T14:06:56.737Z,7.03
2023-02-06T14:09:32.738Z,6.54
2023-02-06T14:12:10.726Z,6.69
2023-02-06T14:14:38.679Z,6.03
2023-02-06T14:17:12.193Z,5.43
2023-02-06T14:19:28.327Z,5.35
2023-02-06T14:21:51.549Z,5.47
2023-02-06T14:23:58.825Z,5.22
2023-02-06T14:26:28.006Z,5.04
2023-02-06T14:28:53.723Z,5.46
2023-02-06T14:31:11.258Z,5.53
2023-02-06T14:33:18.835Z,5.66
2023-02-06T14:35:38.045Z,5.96
2023-02-06T14:38:01.906Z,6.37
2023-02-06T14:40:17.069Z,5.84
2023-02-06T14:42:31.094Z,5.51
2023-02-06T14:44:32.781Z,4.44
2023-02-06T14:46:35.023Z,4.29
2023-02-06T14:48:42.883Z,4.37
2023-02-06T14:50:54.853Z,4.23
2023-02-06T14:53:10.181Z,4.36
2023-02-06T14:55:36.305Z,4.18
2023-02-06T14:57:39.057Z,4.18
2023-02-06T14:59:51.298Z,4.40
2023-02-06T15:01:54.991Z,4.37
2023-02-06T15:04:14.735Z,4.20
2023-02-06T15:06:30.881Z,4.20
2023-02-06T15:08:33.565Z,4.02
2023-02-06T15:10:37.826Z,3.86
2023-02-06T15:12:39.379Z,3.86
2023-02-06T15:15:02.649Z,3.84
2023-02-06T15:17:04.402Z,3.55
2023-02-06T15:19:10.966Z,3.73
2023-02-06T15:21:16.127Z,3.56
2023-02-06T15:23:41.274Z,3.42
2023-02-06T15:25:45.404Z,3.55
2023-02-06T15:27:46.991Z,3.69
2023-02-06T15:29:50.261Z,3.68
2023-02-06T15:31:54.424Z,3.69
2023-02-06T15:33:59.039Z,3.83
2023-02-06T15:36:03.225Z,3.48
2023-02-06T15:38:08.255Z,3.36
2023-02-06T15:40:22.809Z,3.47
2023-02-06T15:42:24.489Z,3.69
2023-02-06T15:44:34.181Z,3.77
2023-02-06T15:46:37.828Z,3.71
2023-02-06T15:48:51.253Z,3.38
2023-02-06T15:51:17.277Z,3.59
2023-02-06T15:53:32.426Z,3.23
2023-02-06T15:55:36.170Z,2.86
2023-02-06T15:57:41.657Z,3.03
2023-02-06T15:59:43.984Z,3.02
2023-02-06T16:01:46.361Z,3.04
2023-02-06T16:03:55.831Z,2.81
2023-02-06T16:05:58.221Z,2.92
2023-02-06T16:08:01.340Z,2.81
2023-02-06T16:10:14.382Z,2.77
2023-02-06T16:12:16.455Z,2.97
2023-02-06T16:14:30.279Z,2.94
2023-02-06T16:16:32.573Z,2.78
2023-02-06T16:18:37.127Z,2.88
2023-02-06T16:20:42.249Z,2.78
2023-02-06T16:22:44.265Z,2.74
2023-02-06T16:24:46.023Z,2.66
2023-02-06T16:26:49.945Z,2.40
2023-02-06T16:28:54.642Z,2.56
2023-02-06T16:31:02.235Z,2.67
2023-02-06T16:33:24.174Z,2.59
2023-02-06T16:35:26.296Z,2.52
2023-02-06T16:37:30.055Z,2.48
2023-02-06T16:39:31.631Z,2.39
2023-02-06T16:41:36.996Z,2.22
2023-02-06T16:43:38.792Z,2.27
2023-02-06T16:45:41.109Z,2.03
2023-02-06T16:47:43.167Z,2.09
2023-02-06T16:49:48.037Z,2.05
2023-02-06T16:51:52.314Z,2.13
2023-02-06T16:53:54.552Z,2.18
2023-02-06T16:55:56.114Z,2.09
2023-02-06T16:58:00.290Z,2.07
2023-02-06T17:00:06.108Z,2.16
2023-02-06T17:02:14.520Z,2.11
2023-02-06T17:04:16.126Z,2.03
2023-02-06T17:06:29.147Z,1.97
2023-02-06T17:08:36.886Z,1.89
2023-02-06T17:10:38.678Z,1.83
2023-02-06T17:12:41.122Z,1.61
2023-02-06T17:14:43.556Z,1.66
2023-02-06T17:16:45.578Z,1.53
2023-02-06T17:18:48.403Z,1.66
2023-02-06T17:20:56.283Z,1.59
2023-02-06T17:22:57.949Z,1.58
2023-02-06T17:24:59.933Z,1.69
2023-02-06T17:27:03.061Z,1.71
2023-02-06T17:29:05.673Z,1.68
2023-02-06T17:31:08.343Z,1.56
2023-02-06T17:33:10.012Z,1.72
2023-02-06T17:35:12.085Z,1.84
2023-02-06T17:37:20.546Z,1.85
2023-02-06T17:39:22.707Z,1.76
2023-02-06T17:41:24.962Z,1.71
2023-02-06T17:43:26.516Z,1.60
2023-02-06T17:45:28.216Z,1.48
2023-02-06T17:47:29.749Z,1.51
2023-02-06T17:49:31.456Z,1.53
2023-02-06T17:51:33.186Z,1.41
2023-02-06T17:53:34.944Z,1.36
2023-02-06T17:55:36.896Z,1.53
2023-02-06T17:57:39.030Z,1.88
2023-02-06T17:59:40.573Z,1.65
2023-02-06T18:01:42.593Z,1.51
2023-02-06T18:03:46.412Z,1.43
2023-02-06T18:06:02.139Z,1.25
2023-02-06T18:08:03.815Z,1.19
2023-02-06T18:10:06.467Z,0.96
2023-02-06T18:12:08.159Z,1.02
2023-02-06T18:14:10.940Z,0.97
2023-02-06T18:16:22.639Z,0.87
2023-02-06T18:18:24.643Z,0.89
2023-02-06T18:20:26.281Z,0.96
2023-02-06T18:22:27.955Z,0.83
2023-02-06T18:24:29.659Z,0.76
2023-02-06T18:33:12.616Z,0.73
2023-02-06T18:38:10.017Z,0.59
2023-02-06T18:40:33.200Z,0.77
2023-02-06T18:42:55.181Z,0.80
2023-02-06T18:45:18.636Z,0.71
2023-02-06T18:47:42.334Z,0.83
2023-02-06T18:50:04.603Z,0.87
2023-02-06T18:55:27.462Z,1.10
2023-02-06T18:57:50.779Z,1.15
2023-02-06T19:00:14.775Z,1.16
2023-02-06T19:02:36.641Z,1.23
2023-02-06T19:04:58.971Z,1.23
2023-02-06T19:07:20.821Z,1.23
2023-02-06T19:09:43.131Z,1.25
2023-02-06T19:12:05.313Z,1.28
2023-02-06T19:14:27.560Z,1.29
2023-02-06T19:16:50.916Z,1.32
2023-02-06T19:19:13.020Z,1.30
2023-02-06T19:21:35.324Z,1.22
2023-02-06T19:24:00.117Z,1.24
2023-02-06T19:26:23.188Z,1.27
2023-02-06T19:28:45.425Z,1.14
2023-02-06T19:31:08.446Z,1.06
2023-02-06T19:33:32.148Z,1.10
2023-02-06T19:35:54.066Z,0.93
2023-02-06T19:38:15.899Z,0.93
2023-02-06T19:40:38.390Z,1.02
2023-02-06T19:43:00.826Z,1.13
2023-02-06T19:45:22.684Z,1.14
2023-02-06T19:47:44.581Z,1.19
2023-02-06T19:50:07.242Z,1.23
2023-02-06T19:52:09.482Z,1.23
2023-02-06T19:54:11.331Z,1.39
2023-02-06T19:56:17.732Z,1.34
2023-02-06T19:58:19.229Z,1.33
2023-02-06T20:00:20.929Z,1.22
2023-02-06T20:02:22.499Z,1.23
2023-02-06T20:04:27.731Z,1.03
2023-02-06T20:06:34.760Z,0.97
2023-02-06T20:08:41.589Z,0.99
2023-02-06T20:10:43.999Z,1.00
2023-02-06T20:12:46.456Z,1.05
2023-02-06T20:14:48.497Z,1.04
2023-02-06T20:16:50.974Z,1.05
2023-02-06T20:18:53.790Z,1.06
2023-02-06T20:20:55.704Z,1.12
2023-02-06T20:22:57.312Z,1.02
2023-02-06T20:24:58.844Z,1.02
2023-02-06T20:27:04.173Z,1.06
2023-02-06T20:29:07.211Z,1.02
2023-02-06T20:31:10.143Z,0.94
2023-02-06T20:33:11.719Z,0.98
2023-02-06T20:35:13.265Z,1.10
2023-02-06T20:37:17.467Z,1.10
2023-02-06T20:39:19.204Z,1.08
2023-02-06T20:41:22.782Z,1.07
2023-02-06T20:43:24.403Z,0.88
2023-02-06T20:45:26.148Z,0.88
2023-02-06T20:47:28.376Z,0.96
2023-02-06T20:49:31.214Z,1.01
2023-02-06T20:51:33.076Z,1.05
2023-02-06T20:53:34.755Z,1.03
2023-02-06T20:55:41.650Z,1.10
2023-02-06T20:57:43.183Z,1.09
2023-02-06T20:59:44.751Z,1.21
2023-02-06T21:01:46.646Z,1.13
2023-02-06T21:03:49.567Z,1.10
2023-02-06T21:05:56.891Z,1.18
2023-02-06T21:07:59.261Z,1.16
2023-02-06T21:10:01.317Z,1.04
2023-02-06T21:12:03.338Z,1.06
2023-02-06T21:14:06.338Z,1.00
2023-02-06T21:16:08.836Z,1.04
2023-02-06T21:18:10.386Z,1.00
2023-02-06T21:20:12.230Z,0.84
2023-02-06T21:22:13.866Z,1.05
2023-02-06T21:24:16.957Z,0.83
2023-02-06T21:26:18.815Z,0.92
2023-02-06T21:28:21.203Z,0.83
2023-02-06T21:30:22.831Z,0.86
2023-02-06T21:32:25.269Z,0.80
2023-02-06T21:34:26.869Z,1.08
2023-02-06T21:36:30.196Z,0.97
2023-02-06T21:38:31.759Z,1.02
2023-02-06T21:40:33.859Z,0.86
2023-02-06T21:42:35.610Z,0.86
2023-02-06T21:44:37.790Z,0.94
2023-02-06T21:46:40.188Z,1.08
2023-02-06T21:48:42.013Z,1.11
2023-02-06T21:50:44.779Z,1.11
2023-02-06T21:52:46.585Z,1.17
2023-02-06T21:54:48.302Z,1.17
2023-02-06T21:56:50.717Z,1.24
2023-02-06T21:58:52.733Z,1.14
2023-02-06T22:00:55.397Z,1.18
2023-02-06T22:02:57.041Z,1.11
2023-02-06T22:04:59.761Z,1.04
2023-02-06T22:07:01.641Z,0.95
2023-02-06T22:09:07.590Z,0.95
2023-02-06T22:11:17.200Z,0.96
2023-02-06T22:13:18.890Z,0.96
2023-02-06T22:15:20.687Z,0.92
2023-02-06T22:17:22.441Z,0.89
2023-02-06T22:19:24.060Z,0.99
2023-02-06T22:21:27.464Z,0.95
2023-02-06T22:23:29.043Z,0.94
2023-02-06T22:25:30.543Z,0.80
2023-02-06T22:27:32.997Z,0.78
2023-02-06T22:29:34.634Z,0.86
2023-02-06T22:31:36.851Z,0.92
2023-02-06T22:33:38.904Z,0.86
2023-02-06T22:35:40.544Z,0.93
2023-02-06T22:37:44.452Z,1.03
2023-02-06T22:39:46.182Z,1.05
2023-02-06T22:41:48.696Z,1.09
2023-02-06T22:43:51.000Z,1.15
2023-02-06T22:45:52.676Z,1.12
2023-02-06T22:47:54.297Z,1.06
2023-02-06T22:49:55.848Z,1.17
2023-02-06T22:52:00.152Z,1.22
2023-02-06T22:54:02.375Z,1.14
2023-02-06T22:56:24.046Z,1.05
2023-02-06T22:58:25.585Z,1.02
2023-02-06T23:00:28.679Z,1.11
2023-02-06T23:02:30.299Z,1.03
2023-02-06T23:04:36.062Z,0.95
2023-02-06T23:06:37.969Z,1.10
2023-02-06T23:08:40.854Z,0.98
2023-02-06T23:10:45.694Z,0.92
2023-02-06T23:12:47.761Z,0.91
2023-02-06T23:14:49.523Z,0.96
2023-02-06T23:16:51.677Z,0.88
2023-02-06T23:18:53.256Z,0.76
2023-02-06T23:21:03.999Z,0.80
2023-02-06T23:23:05.653Z,0.80
2023-02-06T23:25:07.271Z,0.74
2023-02-06T23:27:09.313Z,0.72
2023-02-06T23:29:15.672Z,0.77
2023-02-06T23:31:17.340Z,0.69
2023-02-06T23:33:19.650Z,0.62
2023-02-06T23:35:21.169Z,0.65
2023-02-06T23:37:22.707Z,0.66
2023-02-06T23:39:24.265Z,0.78
2023-02-06T23:41:27.859Z,0.81
2023-02-06T23:43:29.436Z,0.70
2023-02-06T23:45:30.978Z,0.46
2023-02-06T23:47:34.209Z,0.56
2023-02-06T23:49:35.996Z,0.64
2023-02-06T23:51:38.323Z,0.77
2023-02-06T23:53:39.855Z,0.75
2023-02-06T23:55:41.402Z,0.81
2023-02-06T23:57:44.023Z,0.58
2023-02-06T23:59:45.646Z,0.59
